Time;durP1;ratioP1;P1;durP2;ratioP2;P2;SDS_P1;SDS_P2;PMS_P1;PMS_P2;Temp;Humidity;BMP_temperature;BMP_pressure;BME280_temperature;BME280_humidity;BME280_pressure;Samples;Min_cycle;Max_cycle;Signal;HPM_P1;HPM_P2
2021/10/29 00:01:01;;;;;;;;;16.00;14.00;;;;;-144.76;100.00;60493.00;5058138;28;45662;-86
2021/10/29 00:03:26;;;;;;;;;13.75;12.75;;;;;-144.76;100.00;60493.00;5073551;28;45521;-87
2021/10/29 00:05:52;;;;;;;;;15.75;15.75;;;;;-144.76;100.00;60493.00;5056192;28;47357;-85
2021/10/29 00:08:17;;;;;;;;;21.00;19.75;;;;;-144.76;100.00;60493.00;5057920;28;45385;-85
2021/10/29 00:10:43;;;;;;;;;15.50;13.75;;;;;-144.76;100.00;60493.00;5057817;28;45411;-85
2021/10/29 00:13:08;;;;;;;;;15.25;14.00;;;;;-144.76;100.00;60493.00;5058091;28;45395;-86
2021/10/29 00:15:33;;;;;;;;;14.75;14.00;;;;;-144.76;100.00;60493.00;5057916;28;45965;-85
2021/10/29 00:17:59;;;;;;;;;15.25;14.25;;;;;-144.76;100.00;60493.00;5056813;28;45472;-86
2021/10/29 00:20:25;;;;;;;;;19.00;18.50;;;;;-144.76;100.00;60493.00;5038554;28;45525;-85
2021/10/29 00:22:50;;;;;;;;;18.00;16.50;;;;;-144.76;100.00;60493.00;5056352;28;45414;-85
2021/10/29 00:25:16;;;;;;;;;15.25;14.25;;;;;-144.76;100.00;60493.00;5038133;28;46700;-85
2021/10/29 00:27:42;;;;;;;;;19.00;16.00;;;;;-144.76;100.00;60493.00;5054752;28;45874;-85
2021/10/29 00:30:08;;;;;;;;;15.75;15.25;;;;;-144.76;100.00;60493.00;5056297;28;45283;-86
2021/10/29 00:32:34;;;;;;;;;21.25;17.50;;;;;-144.76;100.00;60493.00;5071299;28;45279;-85
2021/10/29 00:35:00;;;;;;;;;20.50;19.75;;;;;-144.76;100.00;60493.00;5054491;28;46947;-86
2021/10/29 00:37:25;;;;;;;;;20.75;16.50;;;;;-144.76;100.00;60493.00;5056030;28;45629;-86
2021/10/29 00:39:50;;;;;;;;;20.00;18.75;;;;;-144.76;100.00;60493.00;5055913;28;45469;-84
2021/10/29 00:42:16;;;;;;;;;18.00;16.50;;;;;-144.76;100.00;60493.00;5071618;28;45383;-85
2021/10/29 00:44:42;;;;;;;;;20.00;18.00;;;;;-144.76;100.00;60493.00;5054413;28;48086;-84
2021/10/29 00:47:07;;;;;;;;;16.75;16.50;;;;;-144.76;100.00;60493.00;5055744;28;45767;-85
2021/10/29 00:49:33;;;;;;;;;20.50;18.00;;;;;-144.76;100.00;60493.00;5055706;28;45542;-85
2021/10/29 00:52:02;;;;;;;;;18.75;17.75;;;;;-144.76;100.00;60493.00;5054978;28;45457;-85
2021/10/29 00:54:27;;;;;;;;;16.25;15.75;;;;;-144.76;100.00;60493.00;5055576;28;46525;-85
2021/10/29 00:56:53;;;;;;;;;11.00;11.00;;;;;-144.76;100.00;60493.00;5055766;28;45236;-85
2021/10/29 00:59:19;;;;;;;;;16.50;15.25;;;;;-144.76;100.00;60493.00;5037597;28;45494;-85
2021/10/29 01:01:46;;;;;;;;;20.50;18.00;;;;;-144.76;100.00;60493.00;5028714;28;45443;-86
2021/10/29 01:04:12;;;;;;;;;15.00;14.75;;;;;-144.76;100.00;60493.00;5045842;28;46160;-85
2021/10/29 01:06:37;;;;;;;;;17.75;16.00;;;;;-144.76;100.00;60493.00;5046021;28;46648;-84
2021/10/29 01:09:03;;;;;;;;;18.25;16.00;;;;;-144.76;100.00;60493.00;5055624;28;45374;-85
2021/10/29 01:11:30;;;;;;;;;16.75;14.25;;;;;-144.76;100.00;60493.00;5049265;28;45621;-85
2021/10/29 01:13:56;;;;;;;;;20.00;17.75;;;;;-144.76;100.00;60493.00;5055251;28;45462;-85
2021/10/29 01:16:22;;;;;;;;;16.25;16.00;;;;;-144.76;100.00;60493.00;5048677;28;45585;-85
2021/10/29 01:18:48;;;;;;;;;21.00;20.00;;;;;-144.76;100.00;60493.00;5054055;28;45375;-85
2021/10/29 01:21:14;;;;;;;;;17.25;16.25;;;;;-144.76;100.00;60493.00;5054176;28;45351;-84
2021/10/29 01:23:40;;;;;;;;;15.00;15.00;;;;;-144.76;100.00;60493.00;5055141;28;45334;-85
2021/10/29 01:26:08;;;;;;;;;16.75;16.75;;;;;-144.76;100.00;60493.00;5055210;28;45483;-85
2021/10/29 01:28:34;;;;;;;;;14.50;14.50;;;;;-144.76;100.00;60493.00;5053913;28;45497;-85
2021/10/29 01:30:59;;;;;;;;;17.75;16.75;;;;;-144.76;100.00;60493.00;5054873;28;45457;-85
2021/10/29 01:33:25;;;;;;;;;15.75;15.75;;;;;-144.76;100.00;60493.00;5054871;28;46153;-85
2021/10/29 01:35:50;;;;;;;;;18.00;16.25;;;;;-144.76;100.00;60493.00;5070226;28;45466;-85
2021/10/29 01:38:16;;;;;;;;;20.25;19.50;;;;;-144.76;100.00;60493.00;5055164;28;45551;-85
2021/10/29 01:40:41;;;;;;;;;19.25;18.00;;;;;-144.76;100.00;60493.00;5055049;28;45556;-85
2021/10/29 01:43:07;;;;;;;;;13.75;13.75;;;;;-144.76;100.00;60493.00;5054674;28;46058;-87
2021/10/29 01:45:34;;;;;;;;;18.25;17.50;;;;;-144.76;100.00;60493.00;5053429;28;45690;-85
2021/10/29 01:48:00;;;;;;;;;17.00;16.50;;;;;-144.76;100.00;60493.00;5053101;28;45457;-84
2021/10/29 01:50:25;;;;;;;;;14.50;14.50;;;;;-144.76;100.00;60493.00;5053269;28;45438;-86
2021/10/29 01:52:51;;;;;;;;;17.75;16.50;;;;;-144.76;100.00;60493.00;5053248;28;47242;-85
2021/10/29 01:55:16;;;;;;;;;19.50;19.00;;;;;-144.76;100.00;60493.00;5054891;28;45626;-84
2021/10/29 01:57:42;;;;;;;;;17.00;15.50;;;;;-144.76;100.00;60493.00;5053495;28;45677;-85
2021/10/29 02:00:08;;;;;;;;;19.00;17.00;;;;;-144.76;100.00;60493.00;5053418;28;45556;-86
2021/10/29 02:02:33;;;;;;;;;16.75;15.25;;;;;-144.76;100.00;60493.00;5054263;28;46610;-85
2021/10/29 02:04:59;;;;;;;;;15.25;15.00;;;;;-144.76;100.00;60493.00;5054595;28;45346;-86
2021/10/29 02:07:24;;;;;;;;;18.00;17.00;;;;;-144.76;100.00;60493.00;5053168;28;45878;-85
2021/10/29 02:09:49;;;;;;;;;19.25;18.50;;;;;-144.76;100.00;60493.00;5054596;28;45637;-84
2021/10/29 02:12:15;;;;;;;;;16.00;14.75;;;;;-144.76;100.00;60493.00;5036404;28;46871;-84
2021/10/29 02:14:40;;;;;;;;;16.25;16.25;;;;;-144.76;100.00;60493.00;5054332;28;45280;-85
2021/10/29 02:17:05;;;;;;;;;16.75;15.75;;;;;-144.76;100.00;60493.00;5054203;28;45375;-85
2021/10/29 02:19:31;;;;;;;;;15.25;15.25;;;;;-144.76;100.00;60493.00;5054377;28;45675;-84
2021/10/29 02:21:56;;;;;;;;;15.75;14.50;;;;;-144.76;100.00;60493.00;5054434;28;46404;-85
2021/10/29 02:24:22;;;;;;;;;19.00;16.75;;;;;-144.76;100.00;60493.00;5052552;28;45629;-86
2021/10/29 02:26:47;;;;;;;;;17.75;16.75;;;;;-144.76;100.00;60493.00;5054368;28;45420;-84
2021/10/29 02:29:12;;;;;;;;;16.75;14.00;;;;;-144.76;100.00;60493.00;5052967;28;45425;-85
2021/10/29 02:31:40;;;;;;;;;15.75;15.00;;;;;-144.76;100.00;60493.00;5053693;28;46483;-86
2021/10/29 02:34:05;;;;;;;;;18.25;18.00;;;;;-144.76;100.00;60493.00;5036047;28;45832;-86
2021/10/29 02:36:31;;;;;;;;;19.00;15.50;;;;;-144.76;100.00;60493.00;5036154;28;45428;-85
2021/10/29 02:38:57;;;;;;;;;18.75;18.00;;;;;-144.76;100.00;60493.00;5054091;28;45589;-85
2021/10/29 02:41:22;;;;;;;;;18.00;16.00;;;;;-144.76;100.00;60493.00;5054094;28;46365;-86
2021/10/29 02:43:48;;;;;;;;;15.75;15.75;;;;;-144.76;100.00;60493.00;5054234;28;45597;-85
2021/10/29 02:46:14;;;;;;;;;17.00;16.00;;;;;-144.76;100.00;60493.00;5035720;28;45532;-86
2021/10/29 02:48:39;;;;;;;;;14.25;13.75;;;;;-144.76;100.00;60493.00;5052503;28;45758;-86
2021/10/29 02:51:05;;;;;;;;;14.25;14.00;;;;;-144.76;100.00;60493.00;5053621;28;45736;-86
2021/10/29 02:53:31;;;;;;;;;14.75;14.75;;;;;-144.76;100.00;60493.00;5035590;28;45704;-86
2021/10/29 02:55:57;;;;;;;;;17.50;16.00;;;;;-144.76;100.00;60493.00;5053984;28;45533;-86
2021/10/29 02:58:26;;;;;;;;;18.50;15.75;;;;;-144.76;100.00;60493.00;5052362;28;45461;-86
2021/10/29 03:00:52;;;;;;;;;13.00;12.50;;;;;-144.76;100.00;60493.00;5052126;28;47253;-87
2021/10/29 03:03:18;;;;;;;;;14.00;14.00;;;;;-144.76;100.00;60493.00;5046830;28;45459;-92
2021/10/29 03:05:43;;;;;;;;;15.00;14.00;;;;;-144.76;100.00;60493.00;5053935;28;45474;-92
2021/10/29 03:08:09;;;;;;;;;13.00;12.25;;;;;-144.76;100.00;60493.00;5039262;28;45517;-89
2021/10/29 03:10:35;;;;;;;;;15.00;14.00;;;;;-144.76;100.00;60493.00;5056088;28;46941;-93
2021/10/29 03:13:00;;;;;;;;;13.25;12.50;;;;;-144.76;100.00;60493.00;5024106;28;46161;-92
2021/10/29 03:15:25;;;;;;;;;15.25;15.25;;;;;-144.76;100.00;60493.00;5039598;28;45396;-92
2021/10/29 03:17:51;;;;;;;;;13.00;12.00;;;;;-144.76;100.00;60493.00;5029970;28;45895;-92
2021/10/29 03:20:16;;;;;;;;;12.50;12.00;;;;;-144.76;100.00;60493.00;5043961;28;47590;-91
2021/10/29 03:22:42;;;;;;;;;13.25;12.50;;;;;-144.76;100.00;60493.00;5043503;28;45253;-88
2021/10/29 03:25:08;;;;;;;;;13.00;11.75;;;;;-144.76;100.00;60493.00;5045502;28;45521;-89
2021/10/29 03:27:34;;;;;;;;;16.00;13.25;;;;;-144.76;100.00;60493.00;5031452;28;45264;-88
2021/10/29 03:30:00;;;;;;;;;14.50;12.00;;;;;-144.76;100.00;60493.00;5047481;28;46266;-91
2021/10/29 03:32:26;;;;;;;;;12.50;11.50;;;;;-144.76;100.00;60493.00;5045478;28;45398;-92
2021/10/29 03:34:51;;;;;;;;;14.50;12.25;;;;;-144.76;100.00;60493.00;5044557;28;45481;-90
2021/10/29 03:42:45;;;;;;;;;11.75;11.00;;;;;-144.76;100.00;60493.00;5045635;28;45355;-89
2021/10/29 03:45:14;;;;;;;;;15.00;13.75;;;;;-144.76;100.00;60493.00;5045725;28;45222;-88
2021/10/29 03:47:46;;;;;;;;;14.25;12.25;;;;;-144.76;100.00;60493.00;5055614;28;45402;-89
2021/10/29 03:50:20;;;;;;;;;12.50;12.25;;;;;-144.76;100.00;60493.00;5023651;28;47184;-91
2021/10/29 03:55:41;;;;;;;;;12.25;12.25;;;;;-144.76;100.00;60493.00;5024805;28;45612;-87
2021/10/29 03:58:07;;;;;;;;;12.00;12.00;;;;;-144.76;100.00;60493.00;5048788;28;45669;-85
2021/10/29 04:00:33;;;;;;;;;13.00;13.00;;;;;-144.76;100.00;60493.00;5029438;28;47918;-92
2021/10/29 04:03:03;;;;;;;;;13.00;11.00;;;;;-144.76;100.00;60493.00;5053848;28;45529;-91
2021/10/29 04:05:34;;;;;;;;;13.00;12.75;;;;;-144.76;100.00;60493.00;5035912;28;45721;-92
2021/10/29 04:08:00;;;;;;;;;13.25;11.75;;;;;-144.76;100.00;60493.00;5054863;28;45481;-93
2021/10/29 04:10:29;;;;;;;;;10.75;10.75;;;;;-144.76;100.00;60493.00;5054297;28;45490;-86
2021/10/29 04:12:56;;;;;;;;;11.75;11.50;;;;;-144.76;100.00;60493.00;5036853;28;46216;-90
2021/10/29 04:15:22;;;;;;;;;12.00;12.00;;;;;-144.76;100.00;60493.00;5053778;28;45444;-86
2021/10/29 04:17:48;;;;;;;;;11.00;10.25;;;;;-144.76;100.00;60493.00;5056209;28;45576;-93
2021/10/29 04:20:14;;;;;;;;;11.00;11.00;;;;;-144.76;100.00;60493.00;5055228;28;47992;-92
2021/10/29 04:22:40;;;;;;;;;9.75;9.75;;;;;-144.76;100.00;60493.00;5056257;28;45500;-92
2021/10/29 04:25:06;;;;;;;;;13.50;13.25;;;;;-144.76;100.00;60493.00;5055423;28;45362;-85
2021/10/29 04:27:34;;;;;;;;;10.00;10.00;;;;;-144.76;100.00;60493.00;5059822;28;45400;-86
2021/10/29 04:30:00;;;;;;;;;14.00;12.75;;;;;-144.76;100.00;60493.00;5054259;28;45614;-85
2021/10/29 04:32:26;;;;;;;;;11.75;11.25;;;;;-144.76;100.00;60493.00;5044759;28;45896;-84
2021/10/29 04:34:52;;;;;;;;;12.00;12.00;;;;;-144.76;100.00;60493.00;5043516;28;45489;-84
2021/10/29 04:37:18;;;;;;;;;11.75;11.75;;;;;-144.76;100.00;60493.00;5042316;28;45550;-85
2021/10/29 04:39:45;;;;;;;;;12.00;12.00;;;;;-144.76;100.00;60493.00;5046619;28;46269;-84
2021/10/29 04:42:10;;;;;;;;;14.50;12.75;;;;;-144.76;100.00;60493.00;5046646;28;45635;-85
2021/10/29 04:44:35;;;;;;;;;13.50;12.00;;;;;-144.76;100.00;60493.00;5045326;28;45497;-84
2021/10/29 04:47:02;;;;;;;;;10.00;9.50;;;;;-144.76;100.00;60493.00;5043452;28;45353;-85
2021/10/29 04:49:28;;;;;;;;;16.00;13.75;;;;;-144.76;100.00;60493.00;5025711;28;48189;-84
2021/10/29 04:51:53;;;;;;;;;18.25;16.00;;;;;-144.76;100.00;60493.00;5027013;28;45650;-85
2021/10/29 04:54:19;;;;;;;;;16.00;14.50;;;;;-144.76;100.00;60493.00;5041799;28;45509;-86
2021/10/29 04:56:45;;;;;;;;;16.25;14.50;;;;;-144.76;100.00;60493.00;5044156;28;45543;-84
2021/10/29 04:59:13;;;;;;;;;15.75;14.75;;;;;-144.76;100.00;60493.00;5044404;28;45342;-85
2021/10/29 05:01:43;;;;;;;;;12.25;12.00;;;;;-144.76;100.00;60493.00;5035778;28;45920;-84
2021/10/29 05:04:09;;;;;;;;;14.25;11.25;;;;;-144.76;100.00;60493.00;5041311;28;45425;-86
2021/10/29 05:06:34;;;;;;;;;10.25;10.00;;;;;-144.76;100.00;60493.00;5043351;28;45593;-85
2021/10/29 05:09:00;;;;;;;;;11.00;11.00;;;;;-144.76;100.00;60493.00;5043558;28;47131;-84
2021/10/29 05:11:25;;;;;;;;;11.00;10.25;;;;;-144.76;100.00;60493.00;5042250;28;45628;-84
2021/10/29 05:13:51;;;;;;;;;11.50;11.00;;;;;-144.76;100.00;60493.00;5043048;28;45419;-84
2021/10/29 05:16:16;;;;;;;;;12.50;12.25;;;;;-144.76;100.00;60493.00;5043135;28;45615;-84
2021/10/29 05:18:41;;;;;;;;;13.00;13.00;;;;;-144.76;100.00;60493.00;5041645;28;47989;-84
2021/10/29 05:21:07;;;;;;;;;31.00;28.50;;;;;-144.76;100.00;60493.00;5042349;28;46165;-84
2021/10/29 05:23:32;;;;;;;;;25.75;24.50;;;;;-144.76;100.00;60493.00;5045213;28;46121;-85
2021/10/29 05:25:57;;;;;;;;;24.75;23.75;;;;;-144.76;100.00;60493.00;5044582;28;45508;-84
2021/10/29 05:28:23;;;;;;;;;18.25;18.25;;;;;-144.76;100.00;60493.00;5042766;28;46670;-86
2021/10/29 05:30:48;;;;;;;;;15.75;14.00;;;;;-144.76;100.00;60493.00;5044814;28;45624;-85
2021/10/29 05:33:14;;;;;;;;;13.75;13.75;;;;;-144.76;100.00;60493.00;5050791;28;45441;-85
2021/10/29 05:35:39;;;;;;;;;14.50;12.75;;;;;-144.76;100.00;60493.00;5032826;28;45373;-86
2021/10/29 05:38:05;;;;;;;;;13.75;13.75;;;;;-144.76;100.00;60493.00;5051651;28;47904;-85
2021/10/29 05:40:30;;;;;;;;;14.75;12.75;;;;;-144.76;100.00;60493.00;5053564;28;45415;-85
2021/10/29 05:42:55;;;;;;;;;17.25;14.00;;;;;-144.76;100.00;60493.00;5052004;28;45618;-86
2021/10/29 05:45:21;;;;;;;;;12.25;12.00;;;;;-144.76;100.00;60493.00;5036732;28;45478;-85
2021/10/29 05:47:46;;;;;;;;;14.75;14.75;;;;;-144.76;100.00;60493.00;5051679;28;47410;-84
2021/10/29 05:50:13;;;;;;;;;14.25;13.50;;;;;-144.76;100.00;60493.00;5053122;28;45683;-84
2021/10/29 05:52:42;;;;;;;;;17.25;17.25;;;;;-144.76;100.00;60493.00;5051960;28;45719;-86
2021/10/29 05:55:16;;;;;;;;;13.00;13.00;;;;;-144.76;100.00;60493.00;5052999;28;45680;-89
2021/10/29 05:57:44;;;;;;;;;13.00;13.00;;;;;-144.76;100.00;60493.00;5053994;28;45608;-90
2021/10/29 06:00:10;;;;;;;;;15.25;14.50;;;;;-144.76;100.00;60493.00;5052778;28;45575;-92
2021/10/29 06:02:36;;;;;;;;;14.25;13.00;;;;;-144.76;100.00;60493.00;5050596;28;45682;-90
2021/10/29 06:05:01;;;;;;;;;16.50;13.50;;;;;-144.76;100.00;60493.00;5044329;28;45809;-90
2021/10/29 06:07:26;;;;;;;;;14.75;13.75;;;;;-144.76;100.00;60493.00;5048703;28;45700;-89
2021/10/29 06:09:52;;;;;;;;;16.25;16.25;;;;;-144.76;100.00;60493.00;5053284;28;45718;-91
2021/10/29 06:12:17;;;;;;;;;12.75;12.50;;;;;-144.76;100.00;60493.00;5055636;28;45642;-92
2021/10/29 06:14:43;;;;;;;;;13.50;13.00;;;;;-144.76;100.00;60493.00;5038994;28;45233;-92
2021/10/29 06:17:13;;;;;;;;;15.75;14.75;;;;;-144.76;100.00;60493.00;5046092;28;47003;-90
2021/10/29 06:19:39;;;;;;;;;12.75;12.75;;;;;-144.76;100.00;60493.00;5045435;28;45533;-83
2021/10/29 06:22:13;;;;;;;;;16.00;15.50;;;;;-144.76;100.00;60493.00;5048734;28;45674;-88
2021/10/29 06:24:39;;;;;;;;;9.50;9.25;;;;;-144.76;100.00;60493.00;5036534;28;45620;-85
2021/10/29 06:28:09;;;;;;;;;13.50;12.50;;;;;-144.76;100.00;60493.00;5053131;28;47098;-87
2021/10/29 06:29:54;;;;;;;;;14.75;14.00;;;;;-144.76;100.00;60493.00;5054709;28;46116;-89
2021/10/29 06:32:20;;;;;;;;;11.75;11.00;;;;;-144.76;100.00;60493.00;5036372;28;45305;-84
2021/10/29 06:34:46;;;;;;;;;13.00;12.00;;;;;-144.76;100.00;60493.00;5054577;28;45838;-86
2021/10/29 06:37:16;;;;;;;;;14.25;13.00;;;;;-144.76;100.00;60493.00;5035943;28;48178;-87
2021/10/29 06:39:42;;;;;;;;;13.50;12.25;;;;;-144.76;100.00;60493.00;5032460;28;45642;-86
2021/10/29 06:42:13;;;;;;;;;12.00;12.00;;;;;-144.76;100.00;60493.00;5044204;28;45569;-86
2021/10/29 07:00:42;;;;;;;;;12.25;11.75;;;;;-144.76;100.00;60493.00;5052177;28;45951;-87
2021/10/29 07:11:56;;;;;;;;;12.00;11.00;;;;;-144.76;100.00;60493.00;5015914;28;45241;-85
2021/10/29 07:41:58;;;;;;;;;10.25;10.25;;;;;-144.76;100.00;60493.00;5051934;28;45502;-84
2021/10/29 07:44:27;;;;;;;;;10.25;8.00;;;;;-144.76;100.00;60493.00;5052187;28;45700;-88
2021/10/29 07:46:53;;;;;;;;;9.00;9.00;;;;;-144.76;100.00;60493.00;5046246;28;45501;-88
2021/10/29 07:49:26;;;;;;;;;8.25;7.75;;;;;-144.76;100.00;60493.00;5043426;28;45508;-87
2021/10/29 07:51:51;;;;;;;;;10.00;8.75;;;;;-144.76;100.00;60493.00;5046138;28;46163;-87
2021/10/29 07:54:16;;;;;;;;;6.00;6.00;;;;;-144.76;100.00;60493.00;5040484;28;45534;-87
2021/10/29 07:56:42;;;;;;;;;11.00;10.00;;;;;-144.76;100.00;60493.00;5048572;28;45331;-88
2021/10/29 07:59:07;;;;;;;;;11.75;9.00;;;;;-144.76;100.00;60493.00;5041109;28;45563;-89
2021/10/29 08:01:32;;;;;;;;;9.50;9.00;;;;;-144.76;100.00;60493.00;5040684;28;47108;-93
2021/10/29 08:03:58;;;;;;;;;9.25;9.00;;;;;-144.76;100.00;60493.00;5046021;28;45564;-93
2021/10/29 08:06:24;;;;;;;;;7.25;7.25;;;;;-144.76;100.00;60493.00;5049128;28;45705;-88
2021/10/29 08:08:50;;;;;;;;;9.00;8.50;;;;;-144.76;100.00;60493.00;5058807;28;45394;-89
2021/10/29 08:11:15;;;;;;;;;8.50;8.25;;;;;-144.76;100.00;60493.00;5053926;28;45444;-91
2021/10/29 08:13:42;;;;;;;;;11.00;11.00;;;;;-144.76;100.00;60493.00;5057785;28;45379;-88
2021/10/29 08:16:08;;;;;;;;;9.00;7.50;;;;;-144.76;100.00;60493.00;5045290;28;45384;-92
2021/10/29 08:18:40;;;;;;;;;11.50;9.00;;;;;-144.76;100.00;60493.00;5044977;28;45296;-88
2021/10/29 08:21:06;;;;;;;;;6.75;6.50;;;;;-144.76;100.00;60493.00;5042213;28;45570;-92
2021/10/29 08:23:31;;;;;;;;;7.25;6.75;;;;;-144.76;100.00;60493.00;5048232;28;45339;-89
2021/10/29 08:25:56;;;;;;;;;13.00;12.00;;;;;-144.76;100.00;60493.00;5053144;28;45468;-90
2021/10/29 08:28:22;;;;;;;;;11.25;11.25;;;;;-144.76;100.00;60493.00;5030743;28;45520;-84
2021/10/29 08:30:47;;;;;;;;;9.25;8.00;;;;;-144.76;100.00;60493.00;5049615;28;47150;-90
2021/10/29 08:33:12;;;;;;;;;8.50;8.50;;;;;-144.76;100.00;60493.00;5028976;28;45502;-91
2021/10/29 08:35:38;;;;;;;;;10.00;8.75;;;;;-144.76;100.00;60493.00;5042363;28;45392;-85
2021/10/29 08:38:03;;;;;;;;;10.00;8.25;;;;;-144.76;100.00;60493.00;5029070;28;45252;-86
2021/10/29 08:40:28;;;;;;;;;10.00;8.00;;;;;-144.76;100.00;60493.00;5042698;28;47249;-85
2021/10/29 08:42:54;;;;;;;;;7.25;7.00;;;;;-144.76;100.00;60493.00;5044869;28;45314;-85
2021/10/29 08:45:19;;;;;;;;;7.00;6.25;;;;;-144.76;100.00;60493.00;5045138;28;45573;-85
2021/10/29 08:47:46;;;;;;;;;7.50;6.75;;;;;-144.76;100.00;60493.00;5043821;28;45851;-84
2021/10/29 08:50:18;;;;;;;;;6.00;6.00;;;;;-144.76;100.00;60493.00;5043533;28;46571;-85
2021/10/29 08:52:48;;;;;;;;;7.50;7.50;;;;;-144.76;100.00;60493.00;5046681;28;46020;-86
2021/10/29 08:55:17;;;;;;;;;7.00;6.75;;;;;-144.76;100.00;60493.00;5044130;28;45349;-85
2021/10/29 08:57:47;;;;;;;;;7.00;7.00;;;;;-144.76;100.00;60493.00;5044763;28;45506;-85
2021/10/29 09:00:16;;;;;;;;;11.50;8.00;;;;;-144.76;100.00;60493.00;5044026;28;45454;-86
2021/10/29 09:02:55;;;;;;;;;6.75;6.75;;;;;-144.76;100.00;60493.00;5041705;28;45411;-86
2021/10/29 09:05:35;;;;;;;;;8.00;8.00;;;;;-144.76;100.00;60493.00;5044996;28;45454;-85
2021/10/29 09:08:20;;;;;;;;;7.25;7.25;;;;;-144.76;100.00;60493.00;5047400;28;45594;-86
2021/10/29 09:33:01;;;;;;;;;6.75;6.50;;;;;-144.76;100.00;60493.00;5054793;28;46105;-85
2021/10/29 09:35:29;;;;;;;;;7.50;7.50;;;;;-144.76;100.00;60493.00;5037228;28;45832;-85
2021/10/29 09:38:00;;;;;;;;;10.50;9.25;;;;;-144.76;100.00;60493.00;5055288;28;45454;-87
2021/10/29 09:40:37;;;;;;;;;9.50;9.00;;;;;-144.76;100.00;60493.00;5037766;28;45568;-85
2021/10/29 09:43:13;;;;;;;;;7.00;7.00;;;;;-144.76;100.00;60493.00;5049115;28;46442;-85
2021/10/29 09:45:49;;;;;;;;;10.50;10.00;;;;;-144.76;100.00;60493.00;5028107;28;45698;-85
2021/10/29 09:48:22;;;;;;;;;10.75;10.00;;;;;-144.76;100.00;60493.00;5044399;28;45423;-85
2021/10/29 09:50:52;;;;;;;;;6.75;6.75;;;;;-144.76;100.00;60493.00;5041224;28;45668;-84
2021/10/29 09:53:47;;;;;;;;;12.50;9.75;;;;;-144.76;100.00;60493.00;5048362;28;46558;-85
2021/10/29 09:58:46;;;;;;;;;7.00;7.00;;;;;-144.76;100.00;60493.00;5042848;28;45331;-85
2021/10/29 10:01:13;;;;;;;;;8.75;8.75;;;;;-144.76;100.00;60493.00;5050357;28;45731;-86
2021/10/29 10:03:39;;;;;;;;;9.25;8.25;;;;;-144.76;100.00;60493.00;5044228;28;46403;-85
2021/10/29 10:06:05;;;;;;;;;8.50;8.25;;;;;-144.76;100.00;60493.00;5042039;28;45998;-85
2021/10/29 10:08:32;;;;;;;;;9.00;8.00;;;;;-144.76;100.00;60493.00;5044545;28;45724;-85
2021/10/29 10:10:58;;;;;;;;;8.00;7.75;;;;;-144.76;100.00;60493.00;5045348;28;45762;-85
2021/10/29 10:13:25;;;;;;;;;8.25;7.75;;;;;-144.76;100.00;60493.00;5041720;28;46503;-86
2021/10/29 10:15:54;;;;;;;;;10.75;9.25;;;;;-144.76;100.00;60493.00;5041512;28;46023;-86
2021/10/29 10:18:20;;;;;;;;;7.00;6.25;;;;;-144.76;100.00;60493.00;5053505;28;45296;-85
2021/10/29 10:20:51;;;;;;;;;7.00;7.00;;;;;-144.76;100.00;60493.00;5042266;28;45629;-86
2021/10/29 10:23:24;;;;;;;;;9.25;9.00;;;;;-144.76;100.00;60493.00;5047200;28;45507;-85
2021/10/29 10:29:10;;;;;;;;;8.25;8.25;;;;;-144.76;100.00;60493.00;5045046;28;45428;-85
2021/10/29 10:45:57;;;;;;;;;9.75;8.75;;;;;-144.76;100.00;60493.00;5047715;28;45487;-84
2021/10/29 10:48:28;;;;;;;;;16.00;12.25;;;;;-144.76;100.00;60493.00;5041567;28;45751;-86
2021/10/29 10:51:17;;;;;;;;;9.25;9.00;;;;;-144.76;100.00;60493.00;5044504;28;45404;-86
2021/10/29 10:53:49;;;;;;;;;15.25;15.00;;;;;-144.76;100.00;60493.00;5053569;28;45358;-85
2021/10/29 10:56:23;;;;;;;;;12.00;11.25;;;;;-144.76;100.00;60493.00;5053758;28;45538;-85
2021/10/29 11:02:04;;;;;;;;;15.00;14.75;;;;;-144.76;100.00;60493.00;5044289;28;45548;-85
2021/10/29 11:04:49;;;;;;;;;14.50;12.75;;;;;-144.76;100.00;60493.00;5041606;28;45698;-85
2021/10/29 11:10:14;;;;;;;;;14.25;12.75;;;;;-144.76;100.00;60493.00;5041152;28;45936;-85
2021/10/29 11:12:40;;;;;;;;;11.00;10.25;;;;;-144.76;100.00;60493.00;5039088;28;45557;-85
2021/10/29 11:15:09;;;;;;;;;11.25;10.50;;;;;-144.76;100.00;60493.00;5025750;28;45692;-84
2021/10/29 11:17:55;;;;;;;;;12.50;10.75;;;;;-144.76;100.00;60493.00;5040779;28;47567;-85
2021/10/29 11:20:40;;;;;;;;;14.00;13.00;;;;;-144.76;100.00;60493.00;5057093;28;45410;-85
2021/10/29 11:23:32;;;;;;;;;12.75;10.75;;;;;-144.76;100.00;60493.00;5051919;28;45400;-85
2021/10/29 11:26:04;;;;;;;;;14.00;14.00;;;;;-144.76;100.00;60493.00;5018554;28;45883;-85
2021/10/29 11:28:46;;;;;;;;;16.25;15.50;;;;;-144.76;100.00;60493.00;5023696;28;47402;-84
2021/10/29 11:31:15;;;;;;;;;17.00;15.00;;;;;-144.76;100.00;60493.00;5042996;28;45899;-84
2021/10/29 11:33:43;;;;;;;;;14.50;14.00;;;;;-144.76;100.00;60493.00;5043366;28;45533;-84
2021/10/29 11:36:11;;;;;;;;;14.75;13.50;;;;;-144.76;100.00;60493.00;5040301;28;45447;-84
2021/10/29 11:38:41;;;;;;;;;16.00;15.25;;;;;-144.76;100.00;60493.00;5028429;28;47356;-84
2021/10/29 11:41:14;;;;;;;;;16.00;14.50;;;;;-144.76;100.00;60493.00;5023890;28;45703;-84
2021/10/29 11:43:40;;;;;;;;;15.00;15.00;;;;;-144.76;100.00;60493.00;5036316;28;45378;-86
2021/10/29 11:46:08;;;;;;;;;15.75;15.50;;;;;-144.76;100.00;60493.00;5015290;28;45336;-85
2021/10/29 11:48:56;;;;;;;;;14.75;14.00;;;;;-144.76;100.00;60493.00;5031151;28;47218;-85
2021/10/29 11:51:23;;;;;;;;;14.50;13.50;;;;;-144.76;100.00;60493.00;5016600;28;45891;-86
2021/10/29 11:54:11;;;;;;;;;12.50;12.00;;;;;-144.76;100.00;60493.00;5046630;28;45635;-84
2021/10/29 12:07:19;;;;;;;;;12.25;12.00;;;;;-144.76;100.00;60493.00;5033102;28;45581;-85
2021/10/29 12:09:47;;;;;;;;;12.50;12.00;;;;;-144.76;100.00;60493.00;5044093;28;45660;-85
2021/10/29 12:12:15;;;;;;;;;11.25;11.25;;;;;-144.76;100.00;60493.00;5025307;28;45891;-85
2021/10/29 12:14:44;;;;;;;;;14.00;12.25;;;;;-144.76;100.00;60493.00;5050301;28;45290;-85
2021/10/29 12:17:17;;;;;;;;;13.50;12.25;;;;;-144.76;100.00;60493.00;5045499;28;45434;-85
2021/10/29 12:19:45;;;;;;;;;12.25;12.00;;;;;-144.76;100.00;60493.00;5041002;28;45723;-84
2021/10/29 12:24:44;;;;;;;;;15.00;15.00;;;;;-144.76;100.00;60493.00;5049977;28;45406;-92
2021/10/29 12:27:23;;;;;;;;;15.25;13.50;;;;;-144.76;100.00;60493.00;5040311;28;45599;-84
2021/10/29 12:30:10;;;;;;;;;13.75;12.75;;;;;-144.76;100.00;60493.00;5040513;28;45431;-84
2021/10/29 13:03:09;;;;;;;;;9.50;8.25;;;;;-144.76;100.00;60493.00;5046432;28;45792;-85
2021/10/29 13:05:38;;;;;;;;;9.75;9.75;;;;;-144.76;100.00;60493.00;5046421;28;45395;-86
2021/10/29 13:08:20;;;;;;;;;9.50;8.00;;;;;-144.76;100.00;60493.00;5059988;28;45566;-86
2021/10/29 13:10:46;;;;;;;;;13.00;11.25;;;;;-144.76;100.00;60493.00;5030445;28;45480;-86
2021/10/29 13:13:21;;;;;;;;;9.75;9.75;;;;;-144.76;100.00;60493.00;5034904;28;45502;-86
2021/10/29 13:15:47;;;;;;;;;10.50;10.25;;;;;-144.76;100.00;60493.00;5017474;28;45786;-86
2021/10/29 13:18:18;;;;;;;;;9.50;9.00;;;;;-144.76;100.00;60493.00;5035944;28;45459;-86
2021/10/29 13:28:39;;;;;;;;;10.75;10.75;;;;;-144.76;100.00;60493.00;5042719;28;45412;-86
2021/10/29 13:50:53;;;;;;;;;12.50;11.50;;;;;-144.76;100.00;60493.00;5040019;28;45514;-86
2021/10/29 13:56:06;;;;;;;;;10.25;10.25;;;;;-144.76;100.00;60493.00;5044316;28;46307;-86
2021/10/29 14:31:06;;;;;;;;;12.25;12.25;;;;;-144.76;100.00;60493.00;5043589;28;45846;-86
2021/10/29 14:33:35;;;;;;;;;149.00;130.00;;;;;-144.76;100.00;60493.00;5024450;28;45842;-86
2021/10/29 14:36:02;;;;;;;;;15.50;15.50;;;;;-144.76;100.00;60493.00;5048026;28;45304;-86